createdAt,value
2022-08-24T00:01:32.016Z,20.39
2022-08-24T00:04:24.610Z,20.32
2022-08-24T00:07:00.403Z,20.34
2022-08-24T00:09:41.505Z,20.31
2022-08-24T00:12:16.541Z,20.25
2022-08-24T00:15:03.024Z,20.28
2022-08-24T00:17:41.430Z,20.32
2022-08-24T00:20:20.224Z,20.32
2022-08-24T00:23:16.047Z,20.29
2022-08-24T00:28:54.228Z,20.33
2022-08-24T00:34:43.080Z,20.37
2022-08-24T00:37:40.224Z,20.36
2022-08-24T00:40:12.880Z,20.40
2022-08-24T00:42:41.756Z,20.40
2022-08-24T00:45:17.743Z,20.47
2022-08-24T00:48:07.361Z,20.51
2022-08-24T00:50:46.728Z,20.52
2022-08-24T00:53:29.746Z,20.50
2022-08-24T00:56:00.464Z,20.37
2022-08-24T00:58:37.786Z,20.45
2022-08-24T01:01:09.372Z,20.35
2022-08-24T01:03:46.150Z,20.49
2022-08-24T01:06:31.345Z,20.42
2022-08-24T01:09:15.519Z,20.39
2022-08-24T01:12:06.474Z,20.43
2022-08-24T01:14:53.680Z,20.44
2022-08-24T01:17:53.271Z,20.39
2022-08-24T01:20:52.535Z,20.34
2022-08-24T01:23:42.048Z,20.29
2022-08-24T01:26:30.224Z,20.25
2022-08-24T01:29:23.713Z,20.20
2022-08-24T01:32:07.771Z,20.19
2022-08-24T01:34:54.716Z,20.12
2022-08-24T01:37:36.705Z,20.11
2022-08-24T01:40:11.330Z,20.08
2022-08-24T01:42:40.472Z,20.12
2022-08-24T01:45:09.549Z,20.09
2022-08-24T01:47:38.065Z,20.05
2022-08-24T01:50:07.035Z,20.03
2022-08-24T01:53:03.435Z,19.98
2022-08-24T01:55:26.634Z,19.95
2022-08-24T01:58:00.313Z,19.90
2022-08-24T02:00:37.108Z,19.85
2022-08-24T02:03:06.130Z,19.79
2022-08-24T02:05:43.983Z,19.77
2022-08-24T02:08:16.992Z,19.66
2022-08-24T02:10:54.993Z,19.66
2022-08-24T02:13:30.155Z,19.63
2022-08-24T02:15:58.375Z,19.60
2022-08-24T02:18:28.056Z,19.59
2022-08-24T02:20:59.031Z,19.56
2022-08-24T02:23:26.711Z,19.60
2022-08-24T02:25:57.339Z,19.57
2022-08-24T02:28:27.833Z,19.59
2022-08-24T02:30:56.391Z,19.57
2022-08-24T02:33:26.293Z,19.49
2022-08-24T02:35:57.839Z,19.56
2022-08-24T02:38:30.256Z,19.56
2022-08-24T02:40:58.508Z,19.55
2022-08-24T02:43:27.398Z,19.60
2022-08-24T02:45:57.013Z,19.55
2022-08-24T02:48:26.559Z,19.53
2022-08-24T02:50:56.385Z,19.57
2022-08-24T02:53:27.322Z,19.52
2022-08-24T02:55:56.623Z,19.35
2022-08-24T02:58:31.282Z,19.42
2022-08-24T03:00:59.943Z,19.43
2022-08-24T03:03:30.703Z,19.47
2022-08-24T03:05:59.210Z,19.45
2022-08-24T03:08:26.526Z,19.36
2022-08-24T03:11:05.505Z,19.38
2022-08-24T03:13:35.504Z,19.25
2022-08-24T03:16:07.127Z,19.15
2022-08-24T03:18:40.310Z,19.12
2022-08-24T03:21:10.951Z,19.00
2022-08-24T03:23:47.893Z,19.02
2022-08-24T03:26:19.507Z,18.92
2022-08-24T03:28:47.350Z,18.94
2022-08-24T03:31:19.272Z,18.89
2022-08-24T03:33:50.577Z,18.92
2022-08-24T03:36:20.709Z,18.85
2022-08-24T03:38:50.600Z,18.85
2022-08-24T03:41:19.104Z,18.82
2022-08-24T03:43:48.663Z,18.95
2022-08-24T03:46:35.008Z,19.04
2022-08-24T03:49:10.686Z,19.03
2022-08-24T03:51:39.743Z,18.93
2022-08-24T03:54:11.585Z,18.90
2022-08-24T03:56:40.625Z,18.92
2022-08-24T03:59:10.881Z,18.96
2022-08-24T04:01:52.303Z,19.01
2022-08-24T04:04:19.983Z,19.05
2022-08-24T04:06:47.235Z,18.95
2022-08-24T04:09:18.350Z,18.90
2022-08-24T04:11:52.028Z,18.94
2022-08-24T04:14:27.783Z,18.91
2022-08-24T04:17:07.984Z,18.96
2022-08-24T04:20:00.587Z,18.93
2022-08-24T04:22:36.947Z,18.79
2022-08-24T04:25:08.930Z,18.73
2022-08-24T04:27:41.658Z,18.71
2022-08-24T04:30:14.238Z,18.66
2022-08-24T04:33:10.616Z,18.67
2022-08-24T04:35:44.305Z,18.62
2022-08-24T04:38:17.190Z,18.64
2022-08-24T04:41:00.225Z,18.65
2022-08-24T04:43:31.001Z,18.64
2022-08-24T04:45:59.950Z,18.66
2022-08-24T04:48:27.147Z,18.80
2022-08-24T04:50:57.551Z,18.84
2022-08-24T04:53:25.921Z,18.72
2022-08-24T04:55:55.667Z,18.63
2022-08-24T04:58:30.474Z,18.64
2022-08-24T05:00:58.594Z,18.78
2022-08-24T05:03:27.245Z,18.86
2022-08-24T05:05:57.185Z,18.94
2022-08-24T05:08:30.283Z,18.93
2022-08-24T05:10:58.571Z,18.93
2022-08-24T05:13:30.205Z,19.04
2022-08-24T05:15:59.886Z,19.09
2022-08-24T05:18:31.332Z,19.06
2022-08-24T05:21:00.304Z,19.22
2022-08-24T05:23:30.962Z,19.28
2022-08-24T05:26:31.185Z,19.28
2022-08-24T05:29:10.351Z,19.40
2022-08-24T05:31:46.431Z,19.51
2022-08-24T05:34:18.863Z,19.61
2022-08-24T05:36:46.911Z,19.60
2022-08-24T05:39:34.538Z,19.60
2022-08-24T05:42:07.747Z,19.63
2022-08-24T05:44:44.226Z,19.67
2022-08-24T05:47:15.180Z,19.80
2022-08-24T05:49:53.849Z,19.91
2022-08-24T05:52:31.434Z,19.79
2022-08-24T05:55:00.205Z,19.83
2022-08-24T05:57:33.825Z,19.95
2022-08-24T06:00:13.026Z,20.05
2022-08-24T06:03:02.217Z,20.11
2022-08-24T06:05:30.872Z,20.25
2022-08-24T06:07:58.623Z,20.22
2022-08-24T06:10:36.787Z,20.22
2022-08-24T06:13:07.355Z,20.25
2022-08-24T06:15:47.989Z,20.30
2022-08-24T06:18:27.345Z,20.44
2022-08-24T06:20:57.868Z,20.45
2022-08-24T06:23:26.600Z,20.48
2022-08-24T06:26:23.098Z,20.52
2022-08-24T06:29:03.348Z,20.56
2022-08-24T06:31:54.576Z,20.54
2022-08-24T06:34:27.484Z,20.61
2022-08-24T06:36:56.714Z,20.82
2022-08-24T06:39:30.794Z,20.96
2022-08-24T06:42:00.754Z,21.08
2022-08-24T06:44:34.728Z,21.14
2022-08-24T06:47:12.759Z,21.21
2022-08-24T06:49:53.913Z,21.22
2022-08-24T06:52:21.665Z,21.27
2022-08-24T06:54:51.318Z,21.33
2022-08-24T06:57:20.553Z,21.31
2022-08-24T06:59:47.626Z,21.30
2022-08-24T07:02:19.731Z,21.26
2022-08-24T07:04:51.049Z,21.28
2022-08-24T07:07:36.316Z,21.25
2022-08-24T07:10:11.666Z,21.32
2022-08-24T07:12:40.063Z,21.39
2022-08-24T07:15:16.177Z,21.43
2022-08-24T07:17:53.971Z,21.49
2022-08-24T07:20:21.502Z,21.43
2022-08-24T07:23:13.433Z,21.39
2022-08-24T07:25:55.877Z,21.20
2022-08-24T07:28:32.069Z,21.08
2022-08-24T07:31:01.395Z,21.21
2022-08-24T07:33:32.313Z,21.11
2022-08-24T07:36:00.110Z,21.10
2022-08-24T07:38:29.518Z,21.16
2022-08-24T07:41:38.308Z,21.37
2022-08-24T07:43:50.560Z,21.65
2022-08-24T07:46:21.593Z,21.78
2022-08-24T07:49:00.127Z,21.86
2022-08-24T07:51:46.549Z,21.92
2022-08-24T07:54:18.328Z,22.03
2022-08-24T07:56:48.035Z,22.22
2022-08-24T07:59:17.727Z,22.45
2022-08-24T08:01:45.357Z,22.38
2022-08-24T08:04:16.072Z,22.56
2022-08-24T08:06:44.503Z,22.62
2022-08-24T08:09:14.768Z,22.63
2022-08-24T08:11:46.866Z,22.64
2022-08-24T08:14:22.968Z,22.74
2022-08-24T08:16:54.191Z,22.91
2022-08-24T08:19:22.332Z,23.05
2022-08-24T08:22:15.288Z,23.17
2022-08-24T08:25:04.949Z,23.22
2022-08-24T08:30:17.434Z,23.30
2022-08-24T08:32:48.360Z,23.28
2022-08-24T08:35:18.981Z,23.29
2022-08-24T08:37:47.837Z,23.15
2022-08-24T08:40:47.499Z,23.27
2022-08-24T08:43:31.626Z,23.45
2022-08-24T08:46:49.506Z,23.69
2022-08-24T08:50:01.679Z,23.25
2022-08-24T08:53:06.761Z,23.45
2022-08-24T08:56:20.008Z,23.68
2022-08-24T08:59:31.249Z,24.01
2022-08-24T09:02:17.871Z,24.15
2022-08-24T09:05:41.174Z,24.58
2022-08-24T09:08:52.147Z,25.21
2022-08-24T09:11:52.287Z,25.65
2022-08-24T09:15:01.718Z,26.14
2022-08-24T09:18:31.728Z,26.06
2022-08-24T09:21:37.012Z,26.03
2022-08-24T09:24:27.025Z,26.50
2022-08-24T09:27:38.063Z,26.87
2022-08-24T09:30:11.167Z,27.68
2022-08-24T09:32:56.411Z,27.73
2022-08-24T09:36:05.516Z,27.20
2022-08-24T09:39:11.040Z,27.35
2022-08-24T09:42:22.393Z,27.67
2022-08-24T09:45:25.473Z,28.36
2022-08-24T09:48:30.391Z,28.52
2022-08-24T09:51:17.655Z,28.54
2022-08-24T09:54:29.867Z,28.82
2022-08-24T09:58:02.212Z,29.23
2022-08-24T10:01:02.103Z,29.09
2022-08-24T10:04:11.737Z,29.23
2022-08-24T10:07:02.208Z,28.77
2022-08-24T10:10:31.351Z,28.11
2022-08-24T10:13:37.881Z,28.23
2022-08-24T10:16:48.548Z,28.71
2022-08-24T10:20:08.765Z,28.88
2022-08-24T10:23:15.556Z,29.54
2022-08-24T10:26:05.860Z,29.78
2022-08-24T10:29:14.706Z,29.88
2022-08-24T10:32:20.495Z,30.14
2022-08-24T10:35:31.032Z,30.49
2022-08-24T10:38:55.207Z,30.47
2022-08-24T10:42:35.641Z,29.85
2022-08-24T10:46:05.903Z,29.73
2022-08-24T10:48:34.843Z,29.78
2022-08-24T10:51:05.461Z,30.01
2022-08-24T10:53:42.464Z,30.15
2022-08-24T10:56:40.613Z,30.44
2022-08-24T10:59:49.007Z,30.61
2022-08-24T11:02:35.036Z,29.98
2022-08-24T11:05:13.166Z,29.61
2022-08-24T11:08:06.328Z,29.66
2022-08-24T11:10:40.834Z,29.53
2022-08-24T11:13:36.880Z,29.62
2022-08-24T11:16:07.918Z,29.70
2022-08-24T11:18:56.435Z,29.29
2022-08-24T11:21:50.761Z,29.17
2022-08-24T11:24:30.910Z,29.45
2022-08-24T11:27:08.197Z,30.03
2022-08-24T11:29:56.039Z,29.58
2022-08-24T11:32:50.778Z,29.86
2022-08-24T11:35:26.750Z,29.83
2022-08-24T11:38:17.333Z,29.63
2022-08-24T11:41:16.177Z,30.08
2022-08-24T11:44:08.112Z,30.10
2022-08-24T11:47:10.947Z,30.20
2022-08-24T11:50:08.514Z,29.81
2022-08-24T11:53:12.163Z,29.50
2022-08-24T11:56:21.603Z,29.57
2022-08-24T11:59:05.479Z,29.60
2022-08-24T12:01:45.787Z,28.94
2022-08-24T12:04:46.589Z,28.44
2022-08-24T12:07:32.672Z,28.24
2022-08-24T12:10:42.900Z,28.32
2022-08-24T12:13:51.092Z,28.32
2022-08-24T12:17:09.967Z,28.54
2022-08-24T12:19:52.491Z,28.93
2022-08-24T12:22:21.460Z,29.13
2022-08-24T12:24:55.632Z,29.51
2022-08-24T12:27:30.039Z,29.42
2022-08-24T12:30:09.819Z,29.99
2022-08-24T12:32:51.139Z,29.88
2022-08-24T12:35:27.481Z,29.66
2022-08-24T12:38:33.478Z,29.49
2022-08-24T12:41:19.641Z,29.54
2022-08-24T12:44:17.677Z,29.97
2022-08-24T12:46:57.373Z,29.64
2022-08-24T12:49:47.492Z,29.62
2022-08-24T12:52:38.122Z,29.69
2022-08-24T12:55:52.669Z,29.35
2022-08-24T12:59:00.160Z,30.07
2022-08-24T13:01:34.917Z,30.58
2022-08-24T13:04:35.319Z,30.44
2022-08-24T13:07:27.572Z,30.33
2022-08-24T13:09:57.115Z,29.86
2022-08-24T13:12:48.430Z,30.04
2022-08-24T13:15:54.302Z,30.04
2022-08-24T13:18:23.404Z,29.65
2022-08-24T13:20:56.596Z,30.27
2022-08-24T13:23:25.517Z,30.59
2022-08-24T13:26:02.430Z,30.55
2022-08-24T13:28:41.167Z,30.70
2022-08-24T13:31:34.764Z,30.66
2022-08-24T13:34:18.355Z,30.16
2022-08-24T13:37:13.216Z,30.12
2022-08-24T13:40:14.651Z,30.06
2022-08-24T13:43:19.644Z,29.84
2022-08-24T13:46:24.329Z,29.78
2022-08-24T13:49:07.561Z,29.72
2022-08-24T13:52:05.480Z,30.11
2022-08-24T13:55:09.285Z,30.07
2022-08-24T13:58:03.858Z,30.38
2022-08-24T14:00:40.295Z,30.09
2022-08-24T14:03:27.667Z,30.10
2022-08-24T14:06:33.230Z,30.24
2022-08-24T14:09:28.929Z,30.23
2022-08-24T14:12:33.000Z,30.16
2022-08-24T14:15:28.337Z,29.88
2022-08-24T14:18:39.230Z,29.49
2022-08-24T14:21:26.670Z,29.22
2022-08-24T14:24:10.830Z,29.26
2022-08-24T14:27:01.470Z,29.51
2022-08-24T14:29:37.241Z,29.16
2022-08-24T14:32:11.852Z,29.15
2022-08-24T14:35:05.720Z,29.38
2022-08-24T14:37:57.102Z,29.18
2022-08-24T14:40:52.398Z,29.00
2022-08-24T14:43:35.299Z,29.17
2022-08-24T14:46:22.621Z,29.34
2022-08-24T14:49:17.797Z,29.77
2022-08-24T14:52:26.845Z,29.98
2022-08-24T14:55:15.314Z,30.04
2022-08-24T14:58:29.278Z,29.67
2022-08-24T15:01:15.638Z,29.42
2022-08-24T15:04:12.681Z,29.33
2022-08-24T15:06:51.145Z,29.42
2022-08-24T15:09:42.109Z,29.35
2022-08-24T15:12:27.792Z,29.10
2022-08-24T15:15:12.787Z,28.97
2022-08-24T15:18:19.945Z,28.90
2022-08-24T15:21:25.167Z,28.91
2022-08-24T15:27:41.310Z,28.94
2022-08-24T15:30:33.780Z,29.04
2022-08-24T15:33:20.833Z,29.05
2022-08-24T15:35:52.577Z,29.13
2022-08-24T15:38:30.123Z,29.17
2022-08-24T15:41:18.446Z,29.31
2022-08-24T15:44:06.549Z,29.37
2022-08-24T15:46:41.006Z,29.37
2022-08-24T15:49:16.155Z,29.41
2022-08-24T15:51:45.860Z,29.53
2022-08-24T15:54:26.876Z,29.51
2022-08-24T15:57:04.793Z,29.41
2022-08-24T15:59:42.569Z,29.31
2022-08-24T16:02:31.094Z,29.29
2022-08-24T16:05:21.757Z,29.27
2022-08-24T16:08:05.900Z,29.44
2022-08-24T16:10:46.049Z,29.54
2022-08-24T16:13:20.375Z,29.48
2022-08-24T16:16:02.850Z,29.45
2022-08-24T16:18:54.539Z,29.38
2022-08-24T16:21:58.591Z,29.42
2022-08-24T16:24:41.248Z,29.51
2022-08-24T16:27:15.249Z,29.27
2022-08-24T16:29:45.667Z,29.21
2022-08-24T16:32:51.817Z,29.10
2022-08-24T16:35:28.283Z,29.11
2022-08-24T16:37:57.661Z,29.02
2022-08-24T16:40:28.647Z,28.87
2022-08-24T16:42:57.397Z,28.53
2022-08-24T16:45:26.908Z,28.51
2022-08-24T16:47:56.462Z,28.52
2022-08-24T16:50:27.312Z,28.46
2022-08-24T16:52:56.850Z,28.19
2022-08-24T16:55:26.566Z,28.10
2022-08-24T16:57:56.857Z,28.09
2022-08-24T17:00:34.646Z,28.08
2022-08-24T17:03:01.817Z,27.97
2022-08-24T17:05:30.293Z,27.93
2022-08-24T17:08:01.053Z,27.81
2022-08-24T17:10:32.980Z,27.76
2022-08-24T17:13:02.741Z,27.74
2022-08-24T17:15:30.454Z,27.58
2022-08-24T17:18:03.825Z,27.57
2022-08-24T17:20:31.716Z,27.62
2022-08-24T17:22:59.328Z,27.55
2022-08-24T17:25:32.695Z,27.51
2022-08-24T17:28:06.244Z,27.53
2022-08-24T17:30:35.950Z,27.59
2022-08-24T17:33:03.742Z,27.54
2022-08-24T17:35:31.745Z,27.42
2022-08-24T17:38:00.490Z,27.39
2022-08-24T17:40:31.841Z,27.36
2022-08-24T17:42:59.797Z,27.40
2022-08-24T17:45:29.027Z,27.29
2022-08-24T17:47:56.366Z,27.42
2022-08-24T17:50:27.309Z,27.31
2022-08-24T17:53:00.363Z,27.26
2022-08-24T17:55:29.024Z,27.30
2022-08-24T17:57:56.938Z,27.26
2022-08-24T18:00:26.326Z,27.24
2022-08-24T18:02:56.230Z,27.13
2022-08-24T18:05:26.776Z,27.10
2022-08-24T18:07:56.844Z,27.05
2022-08-24T18:10:29.050Z,26.93
2022-08-24T18:12:58.738Z,26.86
2022-08-24T18:15:34.652Z,26.79
2022-08-24T18:18:10.466Z,26.76
2022-08-24T18:20:41.275Z,26.70
2022-08-24T18:23:21.286Z,26.65
2022-08-24T18:25:54.537Z,26.59
2022-08-24T18:28:25.557Z,26.47
2022-08-24T18:30:56.317Z,26.41
2022-08-24T18:33:27.976Z,26.33
2022-08-24T18:35:55.578Z,26.22
2022-08-24T18:38:29.151Z,26.16
2022-08-24T18:41:01.982Z,26.06
2022-08-24T18:43:30.698Z,25.97
2022-08-24T18:45:57.957Z,25.96
2022-08-24T18:48:29.008Z,25.92
2022-08-24T18:51:01.408Z,25.80
2022-08-24T18:53:33.378Z,25.71
2022-08-24T18:56:12.495Z,25.61
2022-08-24T18:58:44.316Z,25.49
2022-08-24T19:01:13.736Z,25.44
2022-08-24T19:03:42.933Z,25.33
2022-08-24T19:06:14.254Z,25.29
2022-08-24T19:08:41.782Z,25.25
2022-08-24T19:11:13.987Z,25.15
2022-08-24T19:13:45.457Z,25.10
2022-08-24T19:16:13.443Z,25.05
2022-08-24T19:18:42.306Z,24.96
2022-08-24T19:21:10.604Z,24.94
2022-08-24T19:23:50.707Z,24.87
2022-08-24T19:26:21.479Z,24.82
2022-08-24T19:28:50.658Z,24.76
2022-08-24T19:31:26.069Z,24.72
2022-08-24T19:34:03.403Z,24.66
2022-08-24T19:36:32.878Z,24.66
2022-08-24T19:39:03.897Z,24.66
2022-08-24T19:41:45.331Z,24.67
2022-08-24T19:44:38.813Z,24.64
2022-08-24T19:47:13.658Z,24.65
2022-08-24T19:49:41.638Z,24.66
2022-08-24T19:52:10.856Z,24.63
2022-08-24T19:54:44.855Z,24.62
2022-08-24T19:57:54.598Z,24.56
2022-08-24T20:00:31.392Z,24.46
2022-08-24T20:03:08.685Z,24.46
2022-08-24T20:05:40.545Z,24.43
2022-08-24T20:08:07.760Z,24.41
2022-08-24T20:10:38.821Z,24.34
2022-08-24T20:13:08.676Z,24.32
2022-08-24T20:15:38.378Z,24.28
2022-08-24T20:18:08.246Z,24.20
2022-08-24T20:20:39.937Z,24.13
2022-08-24T20:23:08.607Z,24.19
2022-08-24T20:25:40.192Z,24.19
2022-08-24T20:28:28.703Z,24.24
2022-08-24T20:30:57.357Z,24.12
2022-08-24T20:33:25.167Z,24.13
2022-08-24T20:35:56.358Z,24.18
2022-08-24T20:38:24.696Z,24.18
2022-08-24T20:40:55.249Z,24.18
2022-08-24T20:43:23.645Z,24.19
2022-08-24T20:45:52.942Z,24.18
2022-08-24T20:48:33.620Z,24.15
2022-08-24T20:51:02.771Z,24.17
2022-08-24T20:53:29.905Z,24.15
2022-08-24T20:56:02.863Z,24.16
2022-08-24T20:58:31.226Z,24.10
2022-08-24T21:00:58.703Z,24.13
2022-08-24T21:03:29.535Z,24.12
2022-08-24T21:06:06.371Z,24.07
2022-08-24T21:08:43.527Z,24.02
2022-08-24T21:11:12.206Z,23.84
2022-08-24T21:13:39.726Z,23.93
2022-08-24T21:16:12.294Z,23.94
2022-08-24T21:18:41.656Z,23.88
2022-08-24T21:21:09.838Z,23.86
2022-08-24T21:23:37.903Z,23.85
2022-08-24T21:26:10.637Z,23.84
2022-08-24T21:28:57.558Z,23.90
2022-08-24T21:31:31.463Z,23.92
2022-08-24T21:34:18.807Z,23.91
2022-08-24T21:36:52.651Z,23.93
2022-08-24T21:39:21.508Z,23.93
2022-08-24T21:41:50.981Z,23.92
2022-08-24T21:44:20.458Z,23.91
2022-08-24T21:46:53.104Z,23.90
2022-08-24T21:49:23.890Z,23.93
2022-08-24T21:51:53.498Z,23.93
2022-08-24T21:54:23.226Z,23.94
2022-08-24T21:56:50.497Z,23.92
2022-08-24T21:59:19.162Z,23.93
2022-08-24T22:01:47.537Z,23.91
2022-08-24T22:04:18.360Z,23.92
2022-08-24T22:06:45.499Z,23.97
2022-08-24T22:09:15.174Z,23.97
2022-08-24T22:11:45.014Z,23.97
2022-08-24T22:14:12.728Z,24.01
2022-08-24T22:16:42.691Z,24.05
2022-08-24T22:19:11.516Z,24.03
2022-08-24T22:21:45.883Z,24.04
2022-08-24T22:24:15.180Z,24.04
2022-08-24T22:26:45.553Z,24.07
2022-08-24T22:29:16.473Z,24.04
2022-08-24T22:31:45.507Z,24.02
2022-08-24T22:34:20.060Z,23.92
2022-08-24T22:36:49.965Z,23.90
2022-08-24T22:39:20.768Z,23.98
2022-08-24T22:41:51.039Z,23.97
2022-08-24T22:44:19.839Z,24.03
2022-08-24T22:46:58.176Z,24.02
2022-08-24T22:49:29.485Z,23.98
2022-08-24T22:51:58.118Z,23.85
2022-08-24T22:54:26.906Z,23.80
2022-08-24T22:56:57.514Z,23.75
2022-08-24T22:59:38.640Z,23.71
2022-08-24T23:02:12.491Z,23.75
2022-08-24T23:04:50.706Z,23.81
2022-08-24T23:07:20.909Z,23.84
2022-08-24T23:09:49.586Z,23.85
2022-08-24T23:12:22.472Z,23.81
2022-08-24T23:14:52.543Z,23.80
2022-08-24T23:17:22.995Z,23.80
2022-08-24T23:20:02.481Z,23.76
2022-08-24T23:22:33.092Z,23.81
2022-08-24T23:25:04.004Z,23.64
2022-08-24T23:27:39.988Z,23.66
2022-08-24T23:30:15.616Z,23.75
2022-08-24T23:32:43.911Z,23.79
2022-08-24T23:35:13.473Z,23.81
2022-08-24T23:37:41.130Z,23.84
2022-08-24T23:40:11.205Z,23.81
2022-08-24T23:42:41.442Z,23.83
2022-08-24T23:45:11.817Z,23.83
2022-08-24T23:47:41.252Z,23.88
2022-08-24T23:50:11.582Z,23.80
2022-08-24T23:52:41.167Z,23.75
2022-08-24T23:55:20.266Z,23.64
2022-08-24T23:57:59.932Z,23.70
